Time;durP1;ratioP1;P1;durP2;ratioP2;P2;SDS_P1;SDS_P2;PMS_P1;PMS_P2;Temp;Humidity;BMP_temperature;BMP_pressure;BME280_temperature;BME280_humidity;BME280_pressure;Samples;Min_cycle;Max_cycle;Signal;HPM_P1;HPM_P2
2024/01/13 00:01:07;;;;;;;;;;;;;;;;;;6031664;23;89757;-67
2024/01/13 00:03:32;;;;;;;;;;;;;;;;;;6032631;23;89721;-67
2024/01/13 00:05:59;;;;;;;;;;;;;;;;;;6032358;23;89615;-69
2024/01/13 00:08:24;;;;;;;;;;;;;;;;;;6031873;23;89852;-68
2024/01/13 00:10:49;;;;;;;;;;;;;;;;;;6031613;23;89430;-66
2024/01/13 00:13:15;;;;;;;;;;;;;;;;;;6031440;23;91303;-70
2024/01/13 00:15:40;;;;;;;;;;;;;;;;;;6032776;23;90096;-70
2024/01/13 00:18:06;;;;;;;;;;;;;;;;;;6032346;23;89766;-67
2024/01/13 00:20:31;;;;;;;;;;;;;;;;;;6035040;23;89525;-68
2024/01/13 00:22:56;;;;;;;;;;;;;;;;;;6031889;23;89425;-70
2024/01/13 00:25:22;;;;;;;;;;;;;;;;;;6032414;23;89560;-71
2024/01/13 00:27:47;;;;;;;;;;;;;;;;;;6032105;23;89258;-70
2024/01/13 00:30:12;;;;;;;;;;;;;;;;;;6031193;23;89450;-68
2024/01/13 00:32:37;;;;;;;;;;;;;;;;;;6032178;23;89549;-68
2024/01/13 00:35:03;;;;;;;;;;;;;;;;;;6031664;23;89259;-69
2024/01/13 00:37:28;;;;;;;;;;;;;;;;;;6054337;23;89489;-69
2024/01/13 00:39:53;;;;;;;;;;;;;;;;;;6031653;23;90047;-70
2024/01/13 00:42:18;;;;;;;;;;;;;;;;;;6035563;23;89663;-69
2024/01/13 00:44:44;;;;;;;;;;;;;;;;;;6031423;23;89511;-70
2024/01/13 00:47:09;;;;;;;;;;;;;;;;;;6031388;23;89603;-68
2024/01/13 00:49:34;;;;;;;;;;;;;;;;;;6031374;23;89741;-67
2024/01/13 00:51:59;;;;;;;;;;;;;;;;;;6054247;23;92333;-67
2024/01/13 00:54:24;;;;;;;;;;;;;;;;;;6031383;23;89753;-68
2024/01/13 00:56:50;;;;;;;;;;;;;;;;;;6031893;23;89774;-69
2024/01/13 00:59:15;;;;;;;;;;;;;;;;;;6031341;23;89588;-68
2024/01/13 01:01:40;;;;;;;;;;;;;;;;;;6031686;23;89437;-68
2024/01/13 01:04:05;;;;;;;;;;;;;;;;;;6035486;23;88944;-67
2024/01/13 01:06:31;;;;;;;;;;;;;;;;;;6032184;23;89503;-69
2024/01/13 01:08:56;;;;;;;;;;;;;;;;;;6031500;23;89392;-68
2024/01/13 01:11:21;;;;;;;;;;;;;;;;;;6031956;23;89261;-69
2024/01/13 01:13:46;;;;;;;;;;;;;;;;;;6031160;23;89286;-70
2024/01/13 01:16:12;;;;;;;;;;;;;;;;;;6031650;23;89003;-70
2024/01/13 01:18:37;;;;;;;;;;;;;;;;;;6032105;23;89650;-70
2024/01/13 01:21:02;;;;;;;;;;;;;;;;;;6034014;23;90161;-70
2024/01/13 01:23:27;;;;;;;;;;;;;;;;;;6031333;23;90596;-68
2024/01/13 01:25:53;;;;;;;;;;;;;;;;;;6034747;23;89658;-70
2024/01/13 01:28:18;;;;;;;;;;;;;;;;;;6032401;23;89403;-69
2024/01/13 01:30:43;;;;;;;;;;;;;;;;;;6053171;23;92396;-68
2024/01/13 01:33:08;;;;;;;;;;;;;;;;;;6031539;23;89659;-69
2024/01/13 01:35:34;;;;;;;;;;;;;;;;;;6031835;23;89222;-69
2024/01/13 01:37:59;;;;;;;;;;;;;;;;;;6031912;23;89637;-67
2024/01/13 01:40:26;;;;;;;;;;;;;;;;;;6028542;23;90006;-69
2024/01/13 01:42:52;;;;;;;;;;;;;;;;;;6029909;23;89342;-71
2024/01/13 01:45:17;;;;;;;;;;;;;;;;;;6052235;23;91954;-69
2024/01/13 01:47:43;;;;;;;;;;;;;;;;;;6033645;23;89501;-70
2024/01/13 01:50:09;;;;;;;;;;;;;;;;;;6027259;23;91188;-71
2024/01/13 01:52:35;;;;;;;;;;;;;;;;;;6029903;23;89673;-68
2024/01/13 01:55:01;;;;;;;;;;;;;;;;;;6030177;23;89245;-69
2024/01/13 01:57:26;;;;;;;;;;;;;;;;;;6029181;23;89513;-68
2024/01/13 01:59:52;;;;;;;;;;;;;;;;;;6030180;23;89560;-68
2024/01/13 02:02:19;;;;;;;;;;;;;;;;;;6030580;23;89596;-67
2024/01/13 02:04:45;;;;;;;;;;;;;;;;;;6029909;23;90970;-67
2024/01/13 02:07:11;;;;;;;;;;;;;;;;;;6033120;23;89681;-68
2024/01/13 02:09:36;;;;;;;;;;;;;;;;;;6029688;23;90582;-69
2024/01/13 02:12:02;;;;;;;;;;;;;;;;;;6029417;23;89883;-68
2024/01/13 02:14:27;;;;;;;;;;;;;;;;;;6030307;23;89903;-68
2024/01/13 02:16:53;;;;;;;;;;;;;;;;;;6029234;23;89830;-69
2024/01/13 02:19:18;;;;;;;;;;;;;;;;;;6030532;23;89320;-69
2024/01/13 02:21:43;;;;;;;;;;;;;;;;;;6031123;23;89473;-71
2024/01/13 02:24:08;;;;;;;;;;;;;;;;;;6030602;23;89706;-70
2024/01/13 02:26:34;;;;;;;;;;;;;;;;;;6031908;23;89644;-70
2024/01/13 02:29:00;;;;;;;;;;;;;;;;;;6034355;23;89261;-69
2024/01/13 02:31:25;;;;;;;;;;;;;;;;;;6052334;23;91690;-69
2024/01/13 02:33:51;;;;;;;;;;;;;;;;;;6029894;23;89391;-68
2024/01/13 02:36:16;;;;;;;;;;;;;;;;;;6028849;23;89911;-69
2024/01/13 02:38:41;;;;;;;;;;;;;;;;;;6029720;23;89640;-69
2024/01/13 02:41:06;;;;;;;;;;;;;;;;;;6029493;23;90242;-70
2024/01/13 02:43:32;;;;;;;;;;;;;;;;;;6029973;23;89770;-69
2024/01/13 02:45:57;;;;;;;;;;;;;;;;;;6027565;23;92055;-68
2024/01/13 02:48:22;;;;;;;;;;;;;;;;;;6030596;23;89792;-70
2024/01/13 02:50:55;;;;;;;;;;;;;;;;;;6034340;23;90870;-69
2024/01/13 02:53:20;;;;;;;;;;;;;;;;;;6030940;23;90008;-71
2024/01/13 02:55:45;;;;;;;;;;;;;;;;;;6030304;23;89650;-71
2024/01/13 02:58:10;;;;;;;;;;;;;;;;;;6028758;23;89743;-69
2024/01/13 03:00:35;;;;;;;;;;;;;;;;;;6029213;23;89535;-70
2024/01/13 03:03:01;;;;;;;;;;;;;;;;;;6029550;23;89639;-68
2024/01/13 03:05:26;;;;;;;;;;;;;;;;;;6029952;23;89775;-67
2024/01/13 03:07:51;;;;;;;;;;;;;;;;;;6052607;23;89524;-68
2024/01/13 03:10:16;;;;;;;;;;;;;;;;;;6030830;23;90598;-68
2024/01/13 03:12:41;;;;;;;;;;;;;;;;;;6056539;23;91906;-67
2024/01/13 03:15:07;;;;;;;;;;;;;;;;;;6052784;23;90801;-69
2024/01/13 03:17:32;;;;;;;;;;;;;;;;;;6030560;23;89109;-69
2024/01/13 03:19:57;;;;;;;;;;;;;;;;;;6030975;23;89431;-69
2024/01/13 03:22:22;;;;;;;;;;;;;;;;;;6031105;23;89634;-70
2024/01/13 03:24:48;;;;;;;;;;;;;;;;;;6030513;23;89694;-69
2024/01/13 03:27:13;;;;;;;;;;;;;;;;;;6030798;23;89034;-70
2024/01/13 03:29:38;;;;;;;;;;;;;;;;;;6029612;23;89733;-69
2024/01/13 03:32:03;;;;;;;;;;;;;;;;;;6031362;23;90029;-69
2024/01/13 03:34:29;;;;;;;;;;;;;;;;;;6034466;23;89331;-67
2024/01/13 03:36:54;;;;;;;;;;;;;;;;;;6030597;23;89712;-69
2024/01/13 03:39:19;;;;;;;;;;;;;;;;;;6030869;23;89567;-70
2024/01/13 03:41:44;;;;;;;;;;;;;;;;;;6030865;23;89952;-68
2024/01/13 03:44:10;;;;;;;;;;;;;;;;;;6030321;23;89342;-71
2024/01/13 03:46:35;;;;;;;;;;;;;;;;;;6030594;23;89286;-69
2024/01/13 03:49:00;;;;;;;;;;;;;;;;;;6053875;23;92859;-70
2024/01/13 03:51:25;;;;;;;;;;;;;;;;;;6032160;23;89717;-70
2024/01/13 03:53:50;;;;;;;;;;;;;;;;;;6032706;23;89774;-69
2024/01/13 03:56:16;;;;;;;;;;;;;;;;;;6035582;23;89080;-69
2024/01/13 03:58:41;;;;;;;;;;;;;;;;;;6031990;23;88980;-70
2024/01/13 04:01:08;;;;;;;;;;;;;;;;;;6031509;23;89589;-69
2024/01/13 04:03:33;;;;;;;;;;;;;;;;;;6053445;23;92309;-69
2024/01/13 04:06:00;;;;;;;;;;;;;;;;;;6031794;23;89525;-68
2024/01/13 04:08:25;;;;;;;;;;;;;;;;;;6030471;23;92340;-69
2024/01/13 04:10:51;;;;;;;;;;;;;;;;;;6031973;23;91061;-68
2024/01/13 04:13:16;;;;;;;;;;;;;;;;;;6031071;23;89019;-68
2024/01/13 04:15:41;;;;;;;;;;;;;;;;;;6035107;23;89752;-67
2024/01/13 04:18:06;;;;;;;;;;;;;;;;;;6032184;23;89343;-68
2024/01/13 04:20:32;;;;;;;;;;;;;;;;;;6054124;23;92527;-67
2024/01/13 04:22:57;;;;;;;;;;;;;;;;;;6031555;23;89303;-67
2024/01/13 04:25:22;;;;;;;;;;;;;;;;;;6031895;23;89160;-70
2024/01/13 04:27:48;;;;;;;;;;;;;;;;;;6031784;23;90524;-69
2024/01/13 04:30:13;;;;;;;;;;;;;;;;;;6053366;23;90724;-71
2024/01/13 04:32:39;;;;;;;;;;;;;;;;;;6029219;23;90737;-70
2024/01/13 04:35:04;;;;;;;;;;;;;;;;;;6031488;23;89371;-70
2024/01/13 04:37:30;;;;;;;;;;;;;;;;;;6035844;23;90079;-69
2024/01/13 04:39:55;;;;;;;;;;;;;;;;;;6032510;23;90244;-69
2024/01/13 04:42:20;;;;;;;;;;;;;;;;;;6032060;23;89485;-68
2024/01/13 04:44:45;;;;;;;;;;;;;;;;;;6031382;23;89606;-69
2024/01/13 04:47:10;;;;;;;;;;;;;;;;;;6031282;23;89860;-67
2024/01/13 04:49:36;;;;;;;;;;;;;;;;;;6053405;23;92049;-70
2024/01/13 04:52:01;;;;;;;;;;;;;;;;;;6031590;23;89518;-68
2024/01/13 04:54:26;;;;;;;;;;;;;;;;;;6032096;23;89632;-68
2024/01/13 04:56:51;;;;;;;;;;;;;;;;;;6031691;23;90085;-67
2024/01/13 04:59:17;;;;;;;;;;;;;;;;;;6034783;23;90098;-68
2024/01/13 05:01:42;;;;;;;;;;;;;;;;;;6030159;23;89460;-68
2024/01/13 05:04:07;;;;;;;;;;;;;;;;;;6053953;23;89029;-70
2024/01/13 05:06:32;;;;;;;;;;;;;;;;;;6031659;23;89685;-70
2024/01/13 05:08:59;;;;;;;;;;;;;;;;;;6031872;23;89602;-70
2024/01/13 05:11:24;;;;;;;;;;;;;;;;;;6032599;23;89889;-69
2024/01/13 05:13:49;;;;;;;;;;;;;;;;;;6031760;23;89690;-68
2024/01/13 05:16:14;;;;;;;;;;;;;;;;;;6031414;23;89337;-69
2024/01/13 05:18:39;;;;;;;;;;;;;;;;;;6031360;23;89399;-67
2024/01/13 05:21:05;;;;;;;;;;;;;;;;;;6034534;23;89817;-69
2024/01/13 05:23:30;;;;;;;;;;;;;;;;;;6031175;23;89274;-70
2024/01/13 05:25:55;;;;;;;;;;;;;;;;;;6053428;23;90722;-68
2024/01/13 05:28:20;;;;;;;;;;;;;;;;;;6031137;23;89160;-69
2024/01/13 05:30:46;;;;;;;;;;;;;;;;;;6029502;23;89960;-69
2024/01/13 05:33:11;;;;;;;;;;;;;;;;;;6029982;23;90405;-68
2024/01/13 05:35:37;;;;;;;;;;;;;;;;;;6052720;23;92709;-70
2024/01/13 05:38:02;;;;;;;;;;;;;;;;;;6030900;23;89477;-70
2024/01/13 05:40:27;;;;;;;;;;;;;;;;;;6053813;23;91363;-70
2024/01/13 05:42:52;;;;;;;;;;;;;;;;;;6036110;23;89635;-70
2024/01/13 05:45:18;;;;;;;;;;;;;;;;;;6030805;23;89613;-68
2024/01/13 05:47:43;;;;;;;;;;;;;;;;;;6029929;23;89654;-69
2024/01/13 05:50:09;;;;;;;;;;;;;;;;;;6027749;23;91050;-67
2024/01/13 05:52:36;;;;;;;;;;;;;;;;;;6029758;23;91238;-69
2024/01/13 05:55:02;;;;;;;;;;;;;;;;;;6030483;23;89072;-68
2024/01/13 05:57:28;;;;;;;;;;;;;;;;;;6029836;23;89989;-67
2024/01/13 05:59:53;;;;;;;;;;;;;;;;;;6030098;23;91011;-70
2024/01/13 06:02:18;;;;;;;;;;;;;;;;;;6056896;23;91377;-69
2024/01/13 06:04:43;;;;;;;;;;;;;;;;;;6030080;23;89640;-68
2024/01/13 06:07:09;;;;;;;;;;;;;;;;;;6030862;23;89271;-67
2024/01/13 06:09:34;;;;;;;;;;;;;;;;;;6029990;23;89531;-71
2024/01/13 06:11:59;;;;;;;;;;;;;;;;;;6031495;23;89933;-70
2024/01/13 06:14:25;;;;;;;;;;;;;;;;;;6031609;23;89769;-69
2024/01/13 06:16:50;;;;;;;;;;;;;;;;;;6029736;23;89357;-68
2024/01/13 06:19:15;;;;;;;;;;;;;;;;;;6029668;23;89644;-68
2024/01/13 06:21:42;;;;;;;;;;;;;;;;;;6029626;23;89406;-67
2024/01/13 06:24:08;;;;;;;;;;;;;;;;;;6033625;23;89318;-67
2024/01/13 06:26:33;;;;;;;;;;;;;;;;;;6051438;23;91689;-68
2024/01/13 06:28:58;;;;;;;;;;;;;;;;;;6030457;23;88961;-67
2024/01/13 06:31:23;;;;;;;;;;;;;;;;;;6029893;23;90507;-68
2024/01/13 06:33:48;;;;;;;;;;;;;;;;;;6030825;23;90433;-73
2024/01/13 06:36:14;;;;;;;;;;;;;;;;;;6031522;23;90303;-70
2024/01/13 06:38:39;;;;;;;;;;;;;;;;;;6030767;23;89652;-67
2024/01/13 06:41:04;;;;;;;;;;;;;;;;;;6031147;23;89482;-69
2024/01/13 06:43:29;;;;;;;;;;;;;;;;;;6031859;23;89380;-68
2024/01/13 06:45:55;;;;;;;;;;;;;;;;;;6034476;23;89688;-71
2024/01/13 06:48:20;;;;;;;;;;;;;;;;;;6030205;23;90054;-74
2024/01/13 06:50:45;;;;;;;;;;;;;;;;;;6029974;23;89496;-74
2024/01/13 06:53:10;;;;;;;;;;;;;;;;;;6029098;23;89810;-73
2024/01/13 06:55:36;;;;;;;;;;;;;;;;;;6029202;23;89347;-72
2024/01/13 06:58:01;;;;;;;;;;;;;;;;;;6028965;23;89657;-72
2024/01/13 07:00:26;;;;;;;;;;;;;;;;;;6029285;23;89843;-73
2024/01/13 07:02:52;;;;;;;;;;;;;;;;;;6029169;23;89811;-73
2024/01/13 07:05:17;;;;;;;;;;;;;;;;;;6029087;23;89424;-74
2024/01/13 07:07:42;;;;;;;;;;;;;;;;;;6032661;23;89525;-72
2024/01/13 07:10:09;;;;;;;;;;;;;;;;;;6027234;23;91434;-73
2024/01/13 07:12:34;;;;;;;;;;;;;;;;;;6028506;23;90219;-74
2024/01/13 07:14:59;;;;;;;;;;;;;;;;;;6029863;23;89797;-74
2024/01/13 07:17:24;;;;;;;;;;;;;;;;;;6052222;23;92980;-73
2024/01/13 07:19:50;;;;;;;;;;;;;;;;;;6028843;23;90145;-73
2024/01/13 07:22:15;;;;;;;;;;;;;;;;;;6030060;23;90174;-73
2024/01/13 07:24:40;;;;;;;;;;;;;;;;;;6030861;23;90328;-73
2024/01/13 07:27:05;;;;;;;;;;;;;;;;;;6030238;23;90294;-74
2024/01/13 07:29:30;;;;;;;;;;;;;;;;;;6034928;23;89363;-74
2024/01/13 07:31:56;;;;;;;;;;;;;;;;;;6054344;23;91557;-71
2024/01/13 07:34:21;;;;;;;;;;;;;;;;;;6031562;23;89445;-72
2024/01/13 07:36:46;;;;;;;;;;;;;;;;;;6030943;23;89696;-72
2024/01/13 07:39:12;;;;;;;;;;;;;;;;;;6031199;23;89405;-73
2024/01/13 07:41:37;;;;;;;;;;;;;;;;;;6052752;23;90518;-73
2024/01/13 07:44:02;;;;;;;;;;;;;;;;;;6031077;23;91595;-73
2024/01/13 07:46:27;;;;;;;;;;;;;;;;;;6031968;23;89451;-74
2024/01/13 07:48:52;;;;;;;;;;;;;;;;;;6031004;23;89058;-74
2024/01/13 07:51:18;;;;;;;;;;;;;;;;;;6034882;23;90018;-74
2024/01/13 07:53:43;;;;;;;;;;;;;;;;;;6032709;23;89565;-75
2024/01/13 07:56:08;;;;;;;;;;;;;;;;;;6033883;23;89601;-73
2024/01/13 07:58:34;;;;;;;;;;;;;;;;;;6031027;23;89691;-72
2024/01/13 08:00:59;;;;;;;;;;;;;;;;;;6031577;23;89580;-72
2024/01/13 08:03:25;;;;;;;;;;;;;;;;;;6030977;23;89947;-72
2024/01/13 08:05:50;;;;;;;;;;;;;;;;;;6030680;23;89984;-72
2024/01/13 08:08:15;;;;;;;;;;;;;;;;;;6031081;23;89509;-73
2024/01/13 08:10:40;;;;;;;;;;;;;;;;;;6033856;23;90294;-72
2024/01/13 08:13:06;;;;;;;;;;;;;;;;;;6030589;23;89582;-71
2024/01/13 08:15:31;;;;;;;;;;;;;;;;;;6030293;23;89649;-71
2024/01/13 08:17:57;;;;;;;;;;;;;;;;;;6029178;23;90562;-73
2024/01/13 08:20:22;;;;;;;;;;;;;;;;;;6030333;23;89410;-71
2024/01/13 08:22:48;;;;;;;;;;;;;;;;;;6030230;23;89797;-73
2024/01/13 08:25:13;;;;;;;;;;;;;;;;;;6031027;23;90189;-72
2024/01/13 08:27:38;;;;;;;;;;;;;;;;;;6030822;23;89577;-72
2024/01/13 08:30:04;;;;;;;;;;;;;;;;;;6031729;23;89797;-72
2024/01/13 08:32:30;;;;;;;;;;;;;;;;;;6033717;23;91037;-72
2024/01/13 08:34:55;;;;;;;;;;;;;;;;;;6053470;23;92705;-73
2024/01/13 08:37:20;;;;;;;;;;;;;;;;;;6032540;23;89247;-72
2024/01/13 08:39:45;;;;;;;;;;;;;;;;;;6031574;23;89620;-73
2024/01/13 08:42:10;;;;;;;;;;;;;;;;;;6052639;23;92387;-72
2024/01/13 08:44:36;;;;;;;;;;;;;;;;;;6031652;23;90444;-74
2024/01/13 08:47:01;;;;;;;;;;;;;;;;;;6033391;23;88998;-73
2024/01/13 08:49:27;;;;;;;;;;;;;;;;;;6033076;23;91474;-73
2024/01/13 08:51:52;;;;;;;;;;;;;;;;;;6032292;23;89460;-74
2024/01/13 08:54:18;;;;;;;;;;;;;;;;;;6036481;23;89548;-74
2024/01/13 08:56:44;;;;;;;;;;;;;;;;;;6032587;23;89074;-73
2024/01/13 08:59:09;;;;;;;;;;;;;;;;;;6032571;23;89013;-73
2024/01/13 09:01:35;;;;;;;;;;;;;;;;;;6035087;23;90858;-73
2024/01/13 09:04:00;;;;;;;;;;;;;;;;;;6032504;23;89305;-72
2024/01/13 09:06:26;;;;;;;;;;;;;;;;;;6031123;23;89764;-75
2024/01/13 09:08:51;;;;;;;;;;;;;;;;;;6054267;23;92268;-73
2024/01/13 09:11:17;;;;;;;;;;;;;;;;;;6032596;23;89213;-72
2024/01/13 09:13:42;;;;;;;;;;;;;;;;;;6031291;23;88979;-72
2024/01/13 09:16:07;;;;;;;;;;;;;;;;;;6036083;23;89780;-74
2024/01/13 09:18:32;;;;;;;;;;;;;;;;;;6031710;23;89082;-71
2024/01/13 09:20:57;;;;;;;;;;;;;;;;;;6033077;23;90441;-73
2024/01/13 09:23:23;;;;;;;;;;;;;;;;;;6029946;23;90895;-73
2024/01/13 09:25:48;;;;;;;;;;;;;;;;;;6031789;23;89597;-74
2024/01/13 09:28:13;;;;;;;;;;;;;;;;;;6032364;23;89543;-72
2024/01/13 09:30:40;;;;;;;;;;;;;;;;;;6030820;23;89716;-73
2024/01/13 09:33:05;;;;;;;;;;;;;;;;;;6055216;23;90325;-72
2024/01/13 09:35:31;;;;;;;;;;;;;;;;;;6032909;23;89648;-71
2024/01/13 09:37:59;;;;;;;;;;;;;;;;;;6056698;23;91419;-73
2024/01/13 09:40:25;;;;;;;;;;;;;;;;;;6032150;23;89403;-76
2024/01/13 09:42:53;;;;;;;;;;;;;;;;;;6008737;23;89922;-72
2024/01/13 09:45:20;;;;;;;;;;;;;;;;;;6000858;23;89088;-72
2024/01/13 09:47:45;;;;;;;;;;;;;;;;;;6001801;23;89605;-73
2024/01/13 09:50:11;;;;;;;;;;;;;;;;;;6002194;23;91815;-74
2024/01/13 09:52:37;;;;;;;;;;;;;;;;;;6002874;23;89087;-72
2024/01/13 09:55:05;;;;;;;;;;;;;;;;;;6004615;23;90025;-73
2024/01/13 09:57:30;;;;;;;;;;;;;;;;;;6004509;23;91492;-73
2024/01/13 09:59:56;;;;;;;;;;;;;;;;;;6006338;23;90571;-73
2024/01/13 10:02:21;;;;;;;;;;;;;;;;;;6002432;23;91512;-71
2024/01/13 10:04:46;;;;;;;;;;;;;;;;;;6002906;23;90249;-73
2024/01/13 10:07:12;;;;;;;;;;;;;;;;;;6005327;23;90183;-72
2024/01/13 10:09:38;;;;;;;;;;;;;;;;;;6004092;23;92005;-74
2024/01/13 10:12:07;;;;;;;;;;;;;;;;;;6005664;23;89146;-73
2024/01/13 10:14:35;;;;;;;;;;;;;;;;;;6005989;23;89764;-72
2024/01/13 10:17:02;;;;;;;;;;;;;;;;;;6005736;23;89253;-72
2024/01/13 10:19:27;;;;;;;;;;;;;;;;;;6010449;23;89224;-73
2024/01/13 10:21:53;;;;;;;;;;;;;;;;;;6006331;23;89945;-72
2024/01/13 10:24:18;;;;;;;;;;;;;;;;;;6008245;23;89462;-72
2024/01/13 10:26:43;;;;;;;;;;;;;;;;;;6007669;23;90217;-72
2024/01/13 10:29:08;;;;;;;;;;;;;;;;;;6004779;23;89539;-72
2024/01/13 10:31:35;;;;;;;;;;;;;;;;;;6003977;23;89612;-73
2024/01/13 10:34:00;;;;;;;;;;;;;;;;;;6004848;23;89633;-72
2024/01/13 10:36:26;;;;;;;;;;;;;;;;;;6004237;23;90906;-75
2024/01/13 10:38:51;;;;;;;;;;;;;;;;;;6004301;23;89387;-72
2024/01/13 10:41:21;;;;;;;;;;;;;;;;;;6006620;23;89651;-73
2024/01/13 10:43:51;;;;;;;;;;;;;;;;;;6000151;23;90940;-71
2024/01/13 10:46:21;;;;;;;;;;;;;;;;;;6003040;23;90046;-72
2024/01/13 10:48:48;;;;;;;;;;;;;;;;;;6003057;23;89633;-73
2024/01/13 10:51:14;;;;;;;;;;;;;;;;;;6001560;23;89701;-75
2024/01/13 10:53:42;;;;;;;;;;;;;;;;;;6002313;23;91407;-73
2024/01/13 10:56:07;;;;;;;;;;;;;;;;;;6001819;23;91678;-74
2024/01/13 10:58:33;;;;;;;;;;;;;;;;;;6003121;23;89075;-73
2024/01/13 11:00:58;;;;;;;;;;;;;;;;;;6006173;23;90494;-76
2024/01/13 11:03:24;;;;;;;;;;;;;;;;;;6006299;23;89883;-75
2024/01/13 11:05:49;;;;;;;;;;;;;;;;;;6003169;23;89982;-75
2024/01/13 11:08:14;;;;;;;;;;;;;;;;;;6008986;23;89546;-78
2024/01/13 11:10:42;;;;;;;;;;;;;;;;;;6019655;23;88860;-72
2024/01/13 11:13:07;;;;;;;;;;;;;;;;;;6017101;23;89586;-77
2024/01/13 11:15:33;;;;;;;;;;;;;;;;;;6014001;23;89575;-73
2024/01/13 11:18:03;;;;;;;;;;;;;;;;;;6007531;23;89126;-76
2024/01/13 11:20:28;;;;;;;;;;;;;;;;;;6003343;23;90251;-73
2024/01/13 11:22:58;;;;;;;;;;;;;;;;;;6003892;23;89585;-73
2024/01/13 11:25:24;;;;;;;;;;;;;;;;;;6006779;23;90670;-76
2024/01/13 11:27:52;;;;;;;;;;;;;;;;;;6002678;23;91953;-76
2024/01/13 11:30:27;;;;;;;;;;;;;;;;;;6001991;23;89611;-75
2024/01/13 11:32:53;;;;;;;;;;;;;;;;;;6003446;23;89812;-72
2024/01/13 11:35:19;;;;;;;;;;;;;;;;;;6001553;23;89444;-73
2024/01/13 11:37:44;;;;;;;;;;;;;;;;;;6001110;23;88960;-74
2024/01/13 11:40:11;;;;;;;;;;;;;;;;;;6000853;23;89686;-73
2024/01/13 11:42:37;;;;;;;;;;;;;;;;;;6001146;23;89668;-74
2024/01/13 11:45:03;;;;;;;;;;;;;;;;;;6001649;23;88995;-74
2024/01/13 11:47:31;;;;;;;;;;;;;;;;;;6005929;23;89623;-73
2024/01/13 11:49:56;;;;;;;;;;;;;;;;;;6002126;23;89368;-73
2024/01/13 11:52:31;;;;;;;;;;;;;;;;;;6000294;23;91182;-71
2024/01/13 11:54:57;;;;;;;;;;;;;;;;;;6002464;23;88972;-72
2024/01/13 11:57:23;;;;;;;;;;;;;;;;;;6002346;23;89127;-71
2024/01/13 11:59:48;;;;;;;;;;;;;;;;;;6002502;23;89730;-72
2024/01/13 12:02:14;;;;;;;;;;;;;;;;;;6003099;23;89290;-72
2024/01/13 12:04:41;;;;;;;;;;;;;;;;;;6003785;23;89459;-72
2024/01/13 12:07:08;;;;;;;;;;;;;;;;;;6002965;23;89657;-72
2024/01/13 12:09:33;;;;;;;;;;;;;;;;;;6008517;23;89275;-71
2024/01/13 12:11:59;;;;;;;;;;;;;;;;;;6004699;23;90988;-71
2024/01/13 12:14:28;;;;;;;;;;;;;;;;;;6006614;23;89992;-72
2024/01/13 12:16:55;;;;;;;;;;;;;;;;;;6001794;23;90322;-73
2024/01/13 12:19:20;;;;;;;;;;;;;;;;;;6003569;23;89990;-74
2024/01/13 12:21:46;;;;;;;;;;;;;;;;;;6003614;23;89702;-73
2024/01/13 12:24:11;;;;;;;;;;;;;;;;;;6001247;23;90264;-72
2024/01/13 12:26:37;;;;;;;;;;;;;;;;;;6001986;23;90717;-73
2024/01/13 12:29:02;;;;;;;;;;;;;;;;;;6005437;23;89509;-73
2024/01/13 12:31:27;;;;;;;;;;;;;;;;;;6000801;23;89588;-72
2024/01/13 12:33:52;;;;;;;;;;;;;;;;;;6001304;23;89583;-73
2024/01/13 12:36:18;;;;;;;;;;;;;;;;;;6001966;23;89576;-73
2024/01/13 12:38:43;;;;;;;;;;;;;;;;;;6001826;23;89713;-73
2024/01/13 12:41:09;;;;;;;;;;;;;;;;;;6001226;23;89539;-72
2024/01/13 12:43:36;;;;;;;;;;;;;;;;;;6004051;23;90708;-72
2024/01/13 12:46:02;;;;;;;;;;;;;;;;;;6004196;23;89709;-72
2024/01/13 12:48:28;;;;;;;;;;;;;;;;;;6003502;23;89484;-72
2024/01/13 12:50:53;;;;;;;;;;;;;;;;;;6007771;23;89502;-75
2024/01/13 12:53:27;;;;;;;;;;;;;;;;;;6003295;23;89694;-72
2024/01/13 12:55:53;;;;;;;;;;;;;;;;;;6003430;23;89623;-72
2024/01/13 12:58:18;;;;;;;;;;;;;;;;;;6003730;23;89650;-75
2024/01/13 13:00:44;;;;;;;;;;;;;;;;;;6004350;23;89902;-71
2024/01/13 13:03:09;;;;;;;;;;;;;;;;;;6003512;23;89451;-72
2024/01/13 13:05:34;;;;;;;;;;;;;;;;;;6004546;23;89750;-73
2024/01/13 13:07:59;;;;;;;;;;;;;;;;;;6003015;23;90166;-72
2024/01/13 13:10:24;;;;;;;;;;;;;;;;;;6003272;23;89621;-73
2024/01/13 13:12:50;;;;;;;;;;;;;;;;;;6007257;23;89652;-72
2024/01/13 13:15:15;;;;;;;;;;;;;;;;;;6004092;23;89424;-73
2024/01/13 13:17:41;;;;;;;;;;;;;;;;;;6003644;23;90032;-71
2024/01/13 13:20:07;;;;;;;;;;;;;;;;;;6003418;23;89800;-73
2024/01/13 13:22:37;;;;;;;;;;;;;;;;;;6001759;23;90222;-71
2024/01/13 13:25:05;;;;;;;;;;;;;;;;;;6002125;23;92197;-72
2024/01/13 13:27:31;;;;;;;;;;;;;;;;;;6004564;23;89367;-72
2024/01/13 13:29:57;;;;;;;;;;;;;;;;;;6001114;23;90389;-72
2024/01/13 13:32:22;;;;;;;;;;;;;;;;;;5999414;23;90875;-74
2024/01/13 13:34:47;;;;;;;;;;;;;;;;;;6007043;23;89495;-72
2024/01/13 13:37:13;;;;;;;;;;;;;;;;;;6001066;23;92521;-71
2024/01/13 13:39:38;;;;;;;;;;;;;;;;;;6003660;23;89708;-72
2024/01/13 13:42:03;;;;;;;;;;;;;;;;;;6003620;23;89417;-71
2024/01/13 13:44:31;;;;;;;;;;;;;;;;;;6001745;23;91465;-71
2024/01/13 13:46:57;;;;;;;;;;;;;;;;;;6003742;23;89289;-72
2024/01/13 13:49:22;;;;;;;;;;;;;;;;;;6003924;23;89290;-71
2024/01/13 13:51:51;;;;;;;;;;;;;;;;;;6003651;23;89650;-72
2024/01/13 13:54:16;;;;;;;;;;;;;;;;;;6001955;23;89961;-74
2024/01/13 13:56:41;;;;;;;;;;;;;;;;;;6005825;23;90094;-70
2024/01/13 13:59:07;;;;;;;;;;;;;;;;;;6002968;23;89510;-71
2024/01/13 14:01:32;;;;;;;;;;;;;;;;;;6002112;23;89562;-71
2024/01/13 14:03:57;;;;;;;;;;;;;;;;;;6003525;23;89709;-73
2024/01/13 14:06:22;;;;;;;;;;;;;;;;;;6002144;23;89412;-72
2024/01/13 14:08:48;;;;;;;;;;;;;;;;;;6002674;23;89379;-72
2024/01/13 14:11:13;;;;;;;;;;;;;;;;;;6002090;23;90024;-73
2024/01/13 14:13:38;;;;;;;;;;;;;;;;;;6003625;23;89425;-72
2024/01/13 14:16:04;;;;;;;;;;;;;;;;;;6002890;23;89350;-72
2024/01/13 14:18:33;;;;;;;;;;;;;;;;;;6006375;23;89459;-72
2024/01/13 14:20:58;;;;;;;;;;;;;;;;;;6002855;23;89383;-72
2024/01/13 14:23:24;;;;;;;;;;;;;;;;;;6003676;23;89639;-73
2024/01/13 14:25:49;;;;;;;;;;;;;;;;;;5999471;23;90002;-74
2024/01/13 14:28:15;;;;;;;;;;;;;;;;;;6000744;23;89188;-71
2024/01/13 14:30:40;;;;;;;;;;;;;;;;;;6003105;23;90129;-73
2024/01/13 14:33:06;;;;;;;;;;;;;;;;;;6003407;23;91003;-74
2024/01/13 14:35:31;;;;;;;;;;;;;;;;;;6002938;23;89335;-73
2024/01/13 14:37:56;;;;;;;;;;;;;;;;;;6005828;23;89676;-73
2024/01/13 14:40:21;;;;;;;;;;;;;;;;;;6001777;23;89787;-72
2024/01/13 14:42:47;;;;;;;;;;;;;;;;;;6000664;23;92387;-72
2024/01/13 14:45:13;;;;;;;;;;;;;;;;;;6001798;23;89477;-72
2024/01/13 14:47:38;;;;;;;;;;;;;;;;;;6024297;23;89489;-72
2024/01/13 14:50:03;;;;;;;;;;;;;;;;;;6003184;23;89674;-72
2024/01/13 14:52:29;;;;;;;;;;;;;;;;;;6001747;23;89203;-71
2024/01/13 14:54:54;;;;;;;;;;;;;;;;;;6002221;23;89813;-71
2024/01/13 14:57:20;;;;;;;;;;;;;;;;;;6001612;23;90163;-70
2024/01/13 14:59:45;;;;;;;;;;;;;;;;;;6006508;23;89886;-74
2024/01/13 15:02:10;;;;;;;;;;;;;;;;;;6002186;23;89716;-71
2024/01/13 15:04:35;;;;;;;;;;;;;;;;;;6000771;23;89318;-73
2024/01/13 15:07:01;;;;;;;;;;;;;;;;;;5999712;23;89700;-71
2024/01/13 15:09:26;;;;;;;;;;;;;;;;;;6001043;23;89498;-72
2024/01/13 15:11:51;;;;;;;;;;;;;;;;;;6002883;23;89410;-72
2024/01/13 15:14:17;;;;;;;;;;;;;;;;;;6003294;23;89032;-72
2024/01/13 15:16:42;;;;;;;;;;;;;;;;;;6003157;23;89922;-73
2024/01/13 15:19:07;;;;;;;;;;;;;;;;;;6004036;23;89726;-73
2024/01/13 15:21:35;;;;;;;;;;;;;;;;;;6007683;23;89516;-72
2024/01/13 15:24:01;;;;;;;;;;;;;;;;;;6003354;23;89672;-73
2024/01/13 15:26:26;;;;;;;;;;;;;;;;;;6004176;23;90052;-72
2024/01/13 15:28:51;;;;;;;;;;;;;;;;;;6003390;23;89546;-72
2024/01/13 15:31:16;;;;;;;;;;;;;;;;;;6003085;23;89486;-74
2024/01/13 15:33:41;;;;;;;;;;;;;;;;;;6003804;23;89461;-74
2024/01/13 15:36:07;;;;;;;;;;;;;;;;;;6003951;23;89894;-74
2024/01/13 15:38:32;;;;;;;;;;;;;;;;;;6005312;23;89275;-74
2024/01/13 15:40:57;;;;;;;;;;;;;;;;;;6005935;23;89387;-72
2024/01/13 15:43:22;;;;;;;;;;;;;;;;;;6006405;23;90931;-72
2024/01/13 15:45:50;;;;;;;;;;;;;;;;;;6007521;23;89635;-72
2024/01/13 15:48:15;;;;;;;;;;;;;;;;;;6005994;23;90945;-74
2024/01/13 15:50:44;;;;;;;;;;;;;;;;;;6004849;23;89201;-72
2024/01/13 15:53:09;;;;;;;;;;;;;;;;;;6004455;23;89559;-72
2024/01/13 15:55:35;;;;;;;;;;;;;;;;;;6005174;23;90191;-72
2024/01/13 15:58:00;;;;;;;;;;;;;;;;;;6004235;23;89674;-74
2024/01/13 16:00:25;;;;;;;;;;;;;;;;;;6004599;23;89773;-73
2024/01/13 16:02:51;;;;;;;;;;;;;;;;;;6004561;23;89707;-73
2024/01/13 16:05:17;;;;;;;;;;;;;;;;;;6005727;23;89254;-73
2024/01/13 16:07:43;;;;;;;;;;;;;;;;;;6001279;23;92773;-73
2024/01/13 16:10:08;;;;;;;;;;;;;;;;;;6004819;23;89719;-74
2024/01/13 16:12:34;;;;;;;;;;;;;;;;;;6004697;23;89699;-72
2024/01/13 16:14:59;;;;;;;;;;;;;;;;;;6001720;23;92541;-72
2024/01/13 16:17:25;;;;;;;;;;;;;;;;;;6004284;23;89492;-72
2024/01/13 16:19:50;;;;;;;;;;;;;;;;;;6005032;23;89577;-71
2024/01/13 16:22:15;;;;;;;;;;;;;;;;;;6004650;23;90328;-71
2024/01/13 16:24:40;;;;;;;;;;;;;;;;;;6007291;23;91750;-74
2024/01/13 16:27:05;;;;;;;;;;;;;;;;;;6006592;23;89634;-72
2024/01/13 16:29:31;;;;;;;;;;;;;;;;;;6005321;23;89416;-72
2024/01/13 16:31:56;;;;;;;;;;;;;;;;;;6003597;23;89074;-73
2024/01/13 16:34:21;;;;;;;;;;;;;;;;;;6004890;23;89804;-74